Panama City Beach, Florida
Current Conditions -  °F | °C
As of 1:09 AM on Sunday 23 Nov 2014 (Local Time) from KECP Reporting Station
Light Rain Light Rain  
Wind Chill: 64°   Ceiling: 2600
Heat Index: 64°   Visibility: 10mi
Dew Point: 63°   Wind: 9mph
Humidity: 94%   Direction: 70°ENE
Pressure: 29.94"   Gusts: NA
Location:  30.21°N, 85.85°W
Report Text: KECP 230709Z AUTO 07008KT 10SM -RA FEW005 BKN026 OVC034 18/17 A2994 RMK AO2 PRESFR PNO $
Loading
Personal Weather Stations






























Interactive Weather Map New forecast layout! Learn more

10-Day Weather Forecast

Advertisements
Track Severe Weather on mobile